Time;durP1;ratioP1;P1;durP2;ratioP2;P2;SDS_P1;SDS_P2;PMS_P1;PMS_P2;Temp;Humidity;BMP_temperature;BMP_pressure;BME280_temperature;BME280_humidity;BME280_pressure;Samples;Min_cycle;Max_cycle;Signal;HPM_P1;HPM_P2
2021/03/30 00:01:23;;;;;;;0.95;0.35;;;;;;;;;;5089514;28;20163;-68
2021/03/30 00:03:49;;;;;;;0.40;0.40;;;;;;;;;;5071266;28;20226;-68
2021/03/30 00:06:15;;;;;;;0.40;0.40;;;;;;;;;;5071448;28;20232;-69
2021/03/30 00:08:41;;;;;;;12.20;0.88;;;;;;;;;;5089400;28;20160;-68
2021/03/30 00:11:08;;;;;;;0.22;0.22;;;;;;;;;;5071392;28;20648;-68
2021/03/30 00:13:34;;;;;;;1.35;1.17;;;;;;;;;;5089223;28;20209;-68
2021/03/30 00:16:00;;;;;;;0.30;0.30;;;;;;;;;;5089266;28;20156;-68
2021/03/30 00:18:27;;;;;;;1.00;0.98;;;;;;;;;;5071275;28;20195;-68
2021/03/30 00:20:53;;;;;;;1.55;0.73;;;;;;;;;;5071173;28;20192;-69
2021/03/30 00:23:19;;;;;;;0.77;0.77;;;;;;;;;;5089144;28;20201;-68
2021/03/30 00:25:45;;;;;;;1.23;0.90;;;;;;;;;;5071196;28;20251;-68
2021/03/30 00:28:12;;;;;;;1.00;0.65;;;;;;;;;;5089180;28;20223;-68
2021/03/30 00:30:38;;;;;;;0.90;0.90;;;;;;;;;;5089169;28;20168;-68
2021/03/30 00:33:04;;;;;;;0.20;0.20;;;;;;;;;;5071121;28;20217;-68
2021/03/30 00:35:30;;;;;;;0.00;0.00;;;;;;;;;;5071076;28;20168;-68
2021/03/30 00:37:57;;;;;;;0.70;0.70;;;;;;;;;;5092750;28;20191;-68
2021/03/30 00:40:23;;;;;;;0.22;0.22;;;;;;;;;;5093209;28;20167;-68
2021/03/30 00:42:49;;;;;;;0.22;0.22;;;;;;;;;;5074990;28;20168;-68
2021/03/30 00:45:15;;;;;;;0.68;0.68;;;;;;;;;;5074993;28;20673;-68
2021/03/30 00:47:46;;;;;;;0.32;0.30;;;;;;;;;;5068120;28;20175;-68
2021/03/30 00:50:14;;;;;;;0.20;0.20;;;;;;;;;;5092820;28;20288;-68
2021/03/30 00:52:41;;;;;;;1.75;1.10;;;;;;;;;;5074827;28;20179;-68
2021/03/30 00:55:08;;;;;;;0.95;0.50;;;;;;;;;;5092805;28;20188;-69
2021/03/30 00:57:35;;;;;;;0.10;0.10;;;;;;;;;;5092744;28;20184;-68
2021/03/30 01:00:06;;;;;;;0.10;0.10;;;;;;;;;;5074770;28;20251;-69
2021/03/30 01:02:33;;;;;;;0.55;0.55;;;;;;;;;;5092670;28;20149;-69
2021/03/30 01:04:59;;;;;;;0.10;0.10;;;;;;;;;;5074730;28;20192;-68
2021/03/30 01:07:26;;;;;;;0.95;0.85;;;;;;;;;;5074562;28;20160;-68
2021/03/30 01:10:04;;;;;;;0.10;0.10;;;;;;;;;;5092587;28;20214;-68
2021/03/30 01:12:33;;;;;;;0.47;0.47;;;;;;;;;;5092467;28;20164;-68
2021/03/30 01:15:20;;;;;;;0.10;0.10;;;;;;;;;;5074256;28;20217;-68
2021/03/30 01:17:49;;;;;;;1.30;1.20;;;;;;;;;;5092180;28;20196;-68
2021/03/30 01:20:22;;;;;;;0.45;0.45;;;;;;;;;;5092381;28;20171;-68
2021/03/30 01:23:06;;;;;;;1.17;0.80;;;;;;;;;;5092311;28;20200;-68
2021/03/30 01:25:34;;;;;;;0.05;0.05;;;;;;;;;;5074295;28;20167;-68
2021/03/30 01:28:09;;;;;;;1.20;0.90;;;;;;;;;;5091850;28;20160;-68
2021/03/30 01:30:36;;;;;;;0.25;0.25;;;;;;;;;;5092140;28;20195;-68
2021/03/30 01:33:07;;;;;;;0.47;0.47;;;;;;;;;;5074194;28;20176;-69
2021/03/30 01:35:34;;;;;;;0.45;0.40;;;;;;;;;;5091257;28;20641;-69
2021/03/30 01:38:01;;;;;;;0.32;0.28;;;;;;;;;;5091363;28;20562;-68
2021/03/30 01:40:30;;;;;;;0.55;0.55;;;;;;;;;;5073926;28;20195;-69
2021/03/30 01:42:56;;;;;;;0.10;0.10;;;;;;;;;;5091812;28;20156;-68
2021/03/30 01:45:24;;;;;;;0.20;0.20;;;;;;;;;;5091697;28;20239;-68
2021/03/30 01:47:53;;;;;;;0.10;0.10;;;;;;;;;;5090614;28;20168;-69
2021/03/30 01:50:20;;;;;;;0.00;0.00;;;;;;;;;;5056963;28;20250;-69
2021/03/30 01:52:47;;;;;;;0.20;0.20;;;;;;;;;;5053660;28;20180;-69
2021/03/30 01:55:15;;;;;;;0.20;0.20;;;;;;;;;;5053818;28;20727;-69
2021/03/30 01:57:45;;;;;;;0.30;0.30;;;;;;;;;;5071529;28;20221;-68
2021/03/30 02:00:11;;;;;;;0.10;0.10;;;;;;;;;;5053648;28;20235;-69
2021/03/30 02:02:38;;;;;;;0.10;0.10;;;;;;;;;;5071495;28;20150;-69
2021/03/30 02:05:05;;;;;;;0.20;0.20;;;;;;;;;;5071389;28;20169;-69
2021/03/30 02:07:32;;;;;;;0.15;0.15;;;;;;;;;;5053477;28;20172;-68
2021/03/30 02:10:06;;;;;;;1.30;0.93;;;;;;;;;;5053203;28;20174;-69
2021/03/30 02:12:35;;;;;;;1.55;1.45;;;;;;;;;;5071521;28;20202;-68
2021/03/30 02:15:02;;;;;;;0.20;0.20;;;;;;;;;;5071215;28;20177;-68
2021/03/30 02:17:48;;;;;;;0.32;0.30;;;;;;;;;;5071167;28;20267;-69
2021/03/30 02:20:19;;;;;;;0.17;0.17;;;;;;;;;;5071135;28;20200;-69
2021/03/30 02:22:50;;;;;;;0.13;0.13;;;;;;;;;;5071221;28;20218;-68
2021/03/30 02:25:18;;;;;;;1.95;1.13;;;;;;;;;;5053155;28;20180;-68
2021/03/30 02:27:46;;;;;;;0.82;0.82;;;;;;;;;;5071074;28;20165;-68
2021/03/30 02:30:13;;;;;;;1.42;1.33;;;;;;;;;;5052972;28;20222;-69
2021/03/30 02:32:41;;;;;;;0.20;0.20;;;;;;;;;;5053314;28;20168;-68
2021/03/30 02:35:08;;;;;;;0.10;0.10;;;;;;;;;;5070790;28;20571;-67
2021/03/30 02:37:35;;;;;;;1.17;1.15;;;;;;;;;;5052839;28;20215;-68
2021/03/30 02:40:02;;;;;;;0.10;0.10;;;;;;;;;;5070798;28;20188;-69
2021/03/30 02:42:29;;;;;;;0.43;0.43;;;;;;;;;;5052655;28;20164;-70
2021/03/30 02:44:55;;;;;;;1.23;0.77;;;;;;;;;;5070509;28;20165;-69
2021/03/30 02:47:22;;;;;;;0.45;0.45;;;;;;;;;;5070580;28;20161;-69
2021/03/30 02:49:49;;;;;;;0.10;0.10;;;;;;;;;;5082748;28;20307;-70
2021/03/30 02:52:16;;;;;;;0.10;0.10;;;;;;;;;;5090533;28;20165;-69
2021/03/30 02:54:43;;;;;;;1.08;0.88;;;;;;;;;;5072294;28;20239;-69
2021/03/30 02:57:10;;;;;;;0.20;0.20;;;;;;;;;;5090239;28;20183;-69
2021/03/30 02:59:36;;;;;;;0.50;0.50;;;;;;;;;;5089912;28;20160;-69
2021/03/30 03:02:03;;;;;;;0.30;0.30;;;;;;;;;;5090281;28;20198;-69
2021/03/30 03:04:30;;;;;;;0.10;0.10;;;;;;;;;;5090362;28;20160;-69
2021/03/30 03:06:57;;;;;;;0.40;0.40;;;;;;;;;;5090198;28;20156;-69
2021/03/30 03:09:24;;;;;;;2.00;1.45;;;;;;;;;;5072119;28;20160;-69
2021/03/30 03:11:51;;;;;;;1.27;1.08;;;;;;;;;;5090031;28;20183;-69
2021/03/30 03:14:20;;;;;;;0.10;0.10;;;;;;;;;;5090071;28;20217;-69
2021/03/30 03:16:47;;;;;;;0.65;0.65;;;;;;;;;;5089895;28;20160;-69
2021/03/30 03:19:14;;;;;;;0.82;0.82;;;;;;;;;;5089912;28;20229;-69
2021/03/30 03:21:40;;;;;;;2.85;0.73;;;;;;;;;;5089900;28;20196;-69
2021/03/30 03:24:10;;;;;;;0.32;0.32;;;;;;;;;;5089776;28;20160;-69
2021/03/30 03:26:38;;;;;;;0.22;0.22;;;;;;;;;;5089853;28;20490;-69
2021/03/30 03:29:10;;;;;;;0.10;0.10;;;;;;;;;;5089854;28;20164;-69
2021/03/30 03:31:36;;;;;;;0.20;0.20;;;;;;;;;;5071767;28;20203;-68
2021/03/30 03:34:03;;;;;;;0.20;0.20;;;;;;;;;;5089884;28;20160;-69
2021/03/30 03:36:37;;;;;;;0.70;0.70;;;;;;;;;;5071764;28;20231;-69
2021/03/30 03:39:04;;;;;;;14.68;2.03;;;;;;;;;;5071431;28;20211;-69
2021/03/30 03:41:31;;;;;;;0.43;0.43;;;;;;;;;;5089609;28;20192;-69
2021/03/30 03:43:57;;;;;;;0.40;0.40;;;;;;;;;;5071478;28;20213;-69
2021/03/30 03:46:23;;;;;;;1.30;1.23;;;;;;;;;;5089536;28;20175;-69
2021/03/30 03:48:49;;;;;;;0.30;0.30;;;;;;;;;;5089282;28;20357;-69
2021/03/30 03:51:16;;;;;;;0.43;0.43;;;;;;;;;;5089298;28;20191;-69
2021/03/30 03:53:43;;;;;;;3.60;2.50;;;;;;;;;;5089376;28;20175;-69
2021/03/30 03:56:10;;;;;;;0.40;0.40;;;;;;;;;;5089222;28;20175;-69
2021/03/30 03:58:47;;;;;;;0.43;0.43;;;;;;;;;;5088932;28;20192;-70
2021/03/30 04:01:19;;;;;;;0.10;0.10;;;;;;;;;;5089242;28;20184;-69
2021/03/30 04:03:51;;;;;;;1.05;1.05;;;;;;;;;;5089481;28;20214;-68
2021/03/30 04:06:18;;;;;;;0.52;0.52;;;;;;;;;;5071257;28;20163;-69
2021/03/30 04:08:49;;;;;;;1.17;0.35;;;;;;;;;;5089151;28;20160;-69
2021/03/30 04:11:16;;;;;;;2.08;1.35;;;;;;;;;;5070278;28;20215;-69
2021/03/30 04:13:44;;;;;;;0.10;0.10;;;;;;;;;;5089210;28;20167;-69
2021/03/30 04:16:11;;;;;;;0.10;0.10;;;;;;;;;;5089145;28;20219;-68
2021/03/30 04:18:39;;;;;;;0.00;0.00;;;;;;;;;;5088916;28;20191;-69
2021/03/30 04:21:07;;;;;;;0.47;0.47;;;;;;;;;;5070992;28;20191;-69
2021/03/30 04:23:41;;;;;;;0.10;0.10;;;;;;;;;;5088862;28;20163;-69
2021/03/30 04:26:07;;;;;;;0.20;0.20;;;;;;;;;;5071095;28;20171;-69
2021/03/30 04:28:33;;;;;;;0.10;0.10;;;;;;;;;;5089062;28;20164;-69
2021/03/30 04:31:00;;;;;;;0.43;0.43;;;;;;;;;;5089107;28;20194;-69
2021/03/30 04:33:26;;;;;;;0.10;0.10;;;;;;;;;;5070926;28;20171;-69
2021/03/30 04:35:52;;;;;;;0.05;0.05;;;;;;;;;;5088892;28;20167;-69
2021/03/30 04:38:18;;;;;;;1.15;1.10;;;;;;;;;;5070811;28;20206;-69
2021/03/30 04:40:50;;;;;;;0.45;0.45;;;;;;;;;;5088814;28;20200;-69
2021/03/30 04:43:16;;;;;;;0.77;0.77;;;;;;;;;;5088970;28;20272;-69
2021/03/30 04:45:43;;;;;;;0.45;0.45;;;;;;;;;;5088897;28;20153;-68
2021/03/30 04:48:09;;;;;;;0.40;0.40;;;;;;;;;;5088796;28;20170;-68
2021/03/30 04:50:35;;;;;;;0.10;0.10;;;;;;;;;;5088494;28;20227;-69
2021/03/30 04:53:01;;;;;;;1.75;1.65;;;;;;;;;;5088759;28;20243;-69
2021/03/30 04:55:27;;;;;;;0.32;0.32;;;;;;;;;;5070816;28;20236;-69
2021/03/30 04:57:54;;;;;;;0.28;0.28;;;;;;;;;;5088674;28;20571;-69
2021/03/30 05:00:20;;;;;;;0.15;0.15;;;;;;;;;;5070560;28;20218;-69
2021/03/30 05:02:46;;;;;;;0.00;0.00;;;;;;;;;;5070632;28;20179;-68
2021/03/30 05:05:12;;;;;;;0.50;0.50;;;;;;;;;;5070727;28;20174;-68
2021/03/30 05:07:39;;;;;;;0.10;0.10;;;;;;;;;;5088587;28;20652;-69
2021/03/30 05:10:06;;;;;;;0.32;0.32;;;;;;;;;;5088441;28;20191;-69
2021/03/30 05:12:32;;;;;;;0.10;0.10;;;;;;;;;;5088552;28;20166;-69
2021/03/30 05:14:58;;;;;;;0.08;0.08;;;;;;;;;;5088498;28;20227;-69
2021/03/30 05:17:25;;;;;;;1.17;0.45;;;;;;;;;;5088501;28;20196;-69
2021/03/30 05:19:51;;;;;;;0.20;0.20;;;;;;;;;;5088278;28;20251;-69
2021/03/30 05:22:18;;;;;;;2.15;1.15;;;;;;;;;;5089163;28;20160;-69
2021/03/30 05:24:44;;;;;;;0.08;0.08;;;;;;;;;;5092129;28;20159;-69
2021/03/30 05:27:10;;;;;;;0.30;0.30;;;;;;;;;;5091995;28;20184;-69
2021/03/30 05:29:45;;;;;;;0.30;0.28;;;;;;;;;;5051518;28;20172;-69
2021/03/30 05:32:12;;;;;;;0.20;0.20;;;;;;;;;;5071621;28;20172;-69
2021/03/30 05:34:39;;;;;;;0.17;0.17;;;;;;;;;;5071421;28;20177;-70
2021/03/30 05:37:05;;;;;;;0.10;0.10;;;;;;;;;;5053413;28;20168;-69
2021/03/30 05:39:32;;;;;;;0.10;0.10;;;;;;;;;;5053483;28;20651;-68
2021/03/30 05:41:59;;;;;;;0.43;0.43;;;;;;;;;;5071106;28;20197;-69
2021/03/30 05:44:26;;;;;;;0.10;0.10;;;;;;;;;;5052806;28;20180;-69
2021/03/30 05:47:09;;;;;;;0.80;0.75;;;;;;;;;;5070628;28;20171;-69
2021/03/30 05:49:38;;;;;;;0.10;0.10;;;;;;;;;;5068438;28;20705;-69
2021/03/30 05:52:10;;;;;;;0.82;0.82;;;;;;;;;;5070764;28;20188;-69
2021/03/30 05:54:37;;;;;;;0.55;0.52;;;;;;;;;;5068766;28;20631;-69
2021/03/30 05:57:05;;;;;;;0.40;0.40;;;;;;;;;;5052971;28;20173;-69
2021/03/30 05:59:33;;;;;;;1.23;0.98;;;;;;;;;;5070718;28;20184;-69
2021/03/30 06:02:00;;;;;;;0.82;0.80;;;;;;;;;;5052762;28;20196;-69
2021/03/30 06:04:26;;;;;;;1.17;1.00;;;;;;;;;;5070908;28;20188;-69
2021/03/30 06:06:52;;;;;;;0.25;0.25;;;;;;;;;;5070827;28;20217;-69
2021/03/30 06:09:19;;;;;;;0.20;0.20;;;;;;;;;;5052777;28;20195;-69
2021/03/30 06:11:45;;;;;;;1.10;1.10;;;;;;;;;;5070756;28;20204;-69
2021/03/30 06:14:12;;;;;;;0.57;0.57;;;;;;;;;;5052635;28;20175;-69
2021/03/30 06:16:39;;;;;;;0.10;0.10;;;;;;;;;;5070793;28;20196;-69
2021/03/30 06:19:08;;;;;;;0.13;0.13;;;;;;;;;;5070839;28;20188;-69
2021/03/30 06:21:38;;;;;;;1.00;1.00;;;;;;;;;;5070867;28;20199;-69
2021/03/30 06:24:22;;;;;;;2.13;1.80;;;;;;;;;;5052605;28;20164;-68
2021/03/30 06:26:49;;;;;;;4.70;1.83;;;;;;;;;;5070880;28;20618;-70
2021/03/30 06:29:24;;;;;;;2.40;0.68;;;;;;;;;;5052718;28;20173;-69
2021/03/30 06:31:51;;;;;;;2.50;1.38;;;;;;;;;;5070673;28;20260;-69
2021/03/30 06:34:26;;;;;;;0.68;0.38;;;;;;;;;;5069484;28;20165;-69
2021/03/30 06:36:52;;;;;;;2.63;1.80;;;;;;;;;;5052444;28;20244;-69
2021/03/30 06:39:18;;;;;;;1.02;0.57;;;;;;;;;;5070346;28;20236;-69
2021/03/30 06:42:00;;;;;;;0.35;0.35;;;;;;;;;;5070614;28;20227;-69
2021/03/30 06:44:31;;;;;;;1.85;0.95;;;;;;;;;;5070657;28;20148;-69
2021/03/30 06:47:12;;;;;;;4.38;0.68;;;;;;;;;;5052490;28;20165;-70
2021/03/30 06:49:39;;;;;;;0.65;0.57;;;;;;;;;;5070046;28;20366;-69
2021/03/30 06:52:13;;;;;;;1.73;0.55;;;;;;;;;;5070105;28;20216;-69
2021/03/30 06:54:53;;;;;;;0.95;0.63;;;;;;;;;;5052175;28;20173;-69
2021/03/30 06:57:34;;;;;;;8.38;2.42;;;;;;;;;;5070273;28;20192;-69
2021/03/30 07:00:02;;;;;;;9.38;0.93;;;;;;;;;;5069970;28;20199;-69
2021/03/30 07:02:29;;;;;;;0.55;0.55;;;;;;;;;;5070102;28;20153;-68
2021/03/30 07:04:56;;;;;;;2.00;1.33;;;;;;;;;;5070177;28;20228;-70
2021/03/30 07:07:23;;;;;;;2.10;0.75;;;;;;;;;;5070237;28;20168;-69
2021/03/30 07:09:52;;;;;;;1.90;1.80;;;;;;;;;;5070048;28;20156;-69
2021/03/30 07:12:21;;;;;;;0.77;0.65;;;;;;;;;;5070157;28;20219;-69
2021/03/30 07:14:47;;;;;;;4.47;1.50;;;;;;;;;;5070043;28;20165;-69
2021/03/30 07:17:16;;;;;;;3.85;1.23;;;;;;;;;;5069652;28;20203;-70
2021/03/30 07:19:42;;;;;;;2.33;0.70;;;;;;;;;;5051718;28;20171;-69
2021/03/30 07:22:10;;;;;;;9.20;1.08;;;;;;;;;;5069684;28;20190;-69
2021/03/30 07:24:50;;;;;;;1.50;1.40;;;;;;;;;;5051724;28;20167;-69
2021/03/30 07:27:21;;;;;;;3.85;1.77;;;;;;;;;;5069600;28;20220;-69
2021/03/30 07:29:50;;;;;;;1.10;1.05;;;;;;;;;;5069435;28;20164;-69
2021/03/30 07:32:30;;;;;;;2.38;1.75;;;;;;;;;;5069562;28;20224;-69
2021/03/30 07:35:04;;;;;;;1.73;1.63;;;;;;;;;;5051641;28;20182;-69
2021/03/30 07:37:49;;;;;;;5.88;1.25;;;;;;;;;;5064851;28;20196;-69
2021/03/30 07:40:15;;;;;;;5.25;2.13;;;;;;;;;;5057887;28;20192;-69
2021/03/30 07:42:43;;;;;;;6.68;1.10;;;;;;;;;;5062109;28;20172;-68
2021/03/30 07:45:10;;;;;;;0.57;0.57;;;;;;;;;;5068865;28;20160;-68
2021/03/30 07:47:37;;;;;;;11.38;1.50;;;;;;;;;;5050206;28;20168;-68
2021/03/30 07:50:10;;;;;;;2.95;1.20;;;;;;;;;;5018727;28;20678;-76
2021/03/30 07:52:42;;;;;;;4.22;1.05;;;;;;;;;;5010750;28;20177;-77
2021/03/30 07:55:19;;;;;;;14.95;0.82;;;;;;;;;;5038661;28;20173;-76
2021/03/30 07:58:02;;;;;;;3.72;0.95;;;;;;;;;;5031004;28;20291;-75
2021/03/30 08:00:48;;;;;;;0.77;0.77;;;;;;;;;;5031147;28;20165;-76
2021/03/30 08:03:22;;;;;;;1.63;1.48;;;;;;;;;;5049032;28;20176;-76
2021/03/30 08:06:04;;;;;;;2.38;1.05;;;;;;;;;;5048985;28;20165;-76
2021/03/30 08:08:30;;;;;;;1.25;1.15;;;;;;;;;;5048558;28;20157;-76
2021/03/30 08:10:57;;;;;;;1.40;1.30;;;;;;;;;;5049018;28;20165;-73
2021/03/30 08:13:36;;;;;;;2.28;1.63;;;;;;;;;;5027713;28;20223;-76
2021/03/30 08:16:06;;;;;;;18.02;0.98;;;;;;;;;;5035318;28;20180;-76
2021/03/30 08:18:34;;;;;;;4.00;1.05;;;;;;;;;;5045210;28;20196;-76
2021/03/30 08:21:08;;;;;;;3.35;0.90;;;;;;;;;;5029536;28;20172;-76
2021/03/30 08:24:00;;;;;;;1.35;0.63;;;;;;;;;;5028876;28;20223;-76
2021/03/30 08:26:30;;;;;;;2.50;0.65;;;;;;;;;;5007694;28;20185;-76
2021/03/30 08:28:59;;;;;;;2.83;1.27;;;;;;;;;;5011258;28;20198;-76
2021/03/30 08:31:36;;;;;;;0.82;0.82;;;;;;;;;;5045766;28;20265;-76
2021/03/30 08:34:10;;;;;;;1.75;0.45;;;;;;;;;;5048641;28;20219;-77
2021/03/30 08:36:45;;;;;;;1.55;1.00;;;;;;;;;;5048712;28;20243;-76
2021/03/30 08:39:30;;;;;;;1.95;1.13;;;;;;;;;;5030913;28;20188;-76
2021/03/30 08:41:58;;;;;;;7.55;2.35;;;;;;;;;;5030842;28;20169;-76
2021/03/30 08:44:32;;;;;;;0.98;0.93;;;;;;;;;;5048273;28;20199;-76
2021/03/30 08:46:59;;;;;;;1.63;1.52;;;;;;;;;;5030795;28;20173;-76
2021/03/30 08:49:25;;;;;;;3.13;1.52;;;;;;;;;;5037398;28;20250;-76
2021/03/30 08:51:52;;;;;;;1.10;0.68;;;;;;;;;;5068410;28;20193;-76
2021/03/30 08:54:20;;;;;;;0.80;0.80;;;;;;;;;;5068444;28;20192;-75
2021/03/30 08:56:46;;;;;;;1.55;0.90;;;;;;;;;;5068499;28;20168;-74
2021/03/30 08:59:14;;;;;;;0.63;0.63;;;;;;;;;;5072210;28;20199;-75
2021/03/30 09:01:42;;;;;;;2.10;0.75;;;;;;;;;;5072235;28;20166;-75
2021/03/30 09:04:10;;;;;;;2.30;0.75;;;;;;;;;;5054156;28;20222;-75
2021/03/30 09:06:37;;;;;;;0.65;0.65;;;;;;;;;;5054271;28;20164;-75
2021/03/30 09:09:05;;;;;;;0.52;0.43;;;;;;;;;;5072030;28;20202;-75
2021/03/30 09:11:35;;;;;;;1.70;0.82;;;;;;;;;;5054300;28;20243;-75
2021/03/30 09:14:01;;;;;;;2.58;0.45;;;;;;;;;;5079440;28;20219;-75
2021/03/30 09:16:28;;;;;;;0.75;0.50;;;;;;;;;;5091991;28;20221;-75
2021/03/30 09:19:13;;;;;;;2.38;0.73;;;;;;;;;;5091919;28;20559;-75
2021/03/30 09:21:40;;;;;;;0.60;0.60;;;;;;;;;;5073799;28;20163;-75
2021/03/30 09:24:15;;;;;;;0.80;0.50;;;;;;;;;;5091702;28;20270;-75
2021/03/30 09:26:42;;;;;;;0.30;0.30;;;;;;;;;;5091955;28;20152;-76
2021/03/30 09:29:08;;;;;;;0.80;0.80;;;;;;;;;;5091860;28;20534;-75
2021/03/30 09:31:35;;;;;;;0.40;0.40;;;;;;;;;;5091877;28;20166;-75
2021/03/30 09:34:02;;;;;;;1.63;0.52;;;;;;;;;;5091775;28;20703;-75
2021/03/30 09:36:28;;;;;;;4.00;1.02;;;;;;;;;;5091761;28;20191;-75
2021/03/30 09:38:59;;;;;;;1.10;0.45;;;;;;;;;;5091635;28;20191;-75
2021/03/30 09:41:34;;;;;;;3.33;1.13;;;;;;;;;;5091469;28;20152;-75
2021/03/30 09:44:01;;;;;;;0.13;0.13;;;;;;;;;;5091437;28;20191;-75
2021/03/30 09:46:28;;;;;;;0.30;0.30;;;;;;;;;;5073465;28;20181;-75
2021/03/30 09:48:54;;;;;;;0.40;0.40;;;;;;;;;;5090895;28;20203;-74
2021/03/30 09:51:20;;;;;;;0.20;0.10;;;;;;;;;;5090823;28;20663;-75
2021/03/30 09:53:47;;;;;;;0.20;0.20;;;;;;;;;;5091106;28;20195;-75
2021/03/30 09:56:23;;;;;;;0.20;0.20;;;;;;;;;;5073439;28;20600;-74
2021/03/30 09:58:55;;;;;;;0.30;0.30;;;;;;;;;;5073026;28;20190;-75
2021/03/30 10:01:22;;;;;;;3.85;1.17;;;;;;;;;;5091253;28;20160;-75
2021/03/30 10:03:48;;;;;;;0.25;0.25;;;;;;;;;;5090761;28;20222;-75
2021/03/30 10:06:21;;;;;;;0.30;0.30;;;;;;;;;;5073333;28;20170;-75
2021/03/30 10:08:48;;;;;;;0.63;0.52;;;;;;;;;;5089837;28;20163;-75
2021/03/30 10:11:35;;;;;;;0.38;0.20;;;;;;;;;;5072943;28;20181;-75
2021/03/30 10:14:20;;;;;;;3.75;0.45;;;;;;;;;;5090876;28;20617;-74
2021/03/30 10:16:47;;;;;;;0.43;0.43;;;;;;;;;;5072806;28;20191;-75
2021/03/30 10:19:14;;;;;;;4.75;0.98;;;;;;;;;;5090565;28;20203;-75
2021/03/30 10:21:41;;;;;;;0.40;0.40;;;;;;;;;;5072619;28;20167;-75
2021/03/30 10:24:11;;;;;;;0.20;0.20;;;;;;;;;;5090654;28;20266;-75
2021/03/30 10:26:37;;;;;;;0.38;0.38;;;;;;;;;;5090755;28;20155;-75
2021/03/30 10:29:05;;;;;;;0.80;0.40;;;;;;;;;;5084732;28;20199;-74
2021/03/30 10:31:49;;;;;;;0.40;0.40;;;;;;;;;;5070460;28;20152;-75
2021/03/30 10:34:25;;;;;;;0.30;0.30;;;;;;;;;;5070603;28;20158;-75
2021/03/30 10:36:52;;;;;;;3.60;1.55;;;;;;;;;;5070623;28;20160;-75
2021/03/30 10:39:27;;;;;;;18.73;0.68;;;;;;;;;;5052385;28;20211;-76
2021/03/30 10:42:00;;;;;;;4.28;1.25;;;;;;;;;;5052381;28;20179;-76
2021/03/30 10:44:32;;;;;;;1.67;0.57;;;;;;;;;;5048558;28;20681;-76
2021/03/30 10:46:58;;;;;;;0.10;0.10;;;;;;;;;;5070386;28;20183;-76
2021/03/30 10:49:24;;;;;;;0.75;0.52;;;;;;;;;;5045544;28;20236;-76
2021/03/30 10:51:51;;;;;;;6.03;2.05;;;;;;;;;;5050168;28;20177;-76
2021/03/30 10:54:20;;;;;;;1.55;0.52;;;;;;;;;;5032280;28;20547;-76
2021/03/30 10:56:46;;;;;;;0.95;0.73;;;;;;;;;;5032110;28;20192;-76
2021/03/30 10:59:15;;;;;;;0.95;0.35;;;;;;;;;;5050197;28;20196;-76
2021/03/30 11:01:41;;;;;;;0.15;0.15;;;;;;;;;;5032304;28;20172;-76
2021/03/30 11:04:08;;;;;;;0.00;0.00;;;;;;;;;;5031242;28;20173;-76
2021/03/30 11:06:35;;;;;;;7.68;0.85;;;;;;;;;;5032086;28;20227;-76
2021/03/30 11:09:01;;;;;;;0.32;0.30;;;;;;;;;;5032222;28;20249;-77
2021/03/30 11:11:28;;;;;;;0.50;0.20;;;;;;;;;;5032247;28;20187;-76
2021/03/30 11:13:54;;;;;;;0.35;0.32;;;;;;;;;;5050000;28;20666;-76
2021/03/30 11:16:20;;;;;;;0.20;0.20;;;;;;;;;;5049920;28;20211;-76
2021/03/30 11:18:46;;;;;;;2.20;0.65;;;;;;;;;;5058249;28;20526;-77
2021/03/30 11:21:13;;;;;;;0.85;0.77;;;;;;;;;;5069579;28;20199;-76
2021/03/30 11:23:41;;;;;;;0.20;0.20;;;;;;;;;;5051633;28;20192;-76
2021/03/30 11:26:07;;;;;;;2.40;0.50;;;;;;;;;;5051563;28;20730;-76
2021/03/30 11:28:40;;;;;;;3.03;0.80;;;;;;;;;;5051672;28;20179;-74
2021/03/30 11:31:12;;;;;;;0.60;0.20;;;;;;;;;;5069596;28;20220;-76
2021/03/30 11:33:52;;;;;;;2.20;0.77;;;;;;;;;;5069230;28;20175;-76
2021/03/30 11:36:23;;;;;;;0.43;0.43;;;;;;;;;;5051623;28;20199;-77
2021/03/30 11:38:49;;;;;;;8.35;0.63;;;;;;;;;;5069572;28;20192;-77
2021/03/30 11:41:15;;;;;;;0.40;0.40;;;;;;;;;;5051458;28;20164;-74
2021/03/30 11:43:41;;;;;;;0.98;0.90;;;;;;;;;;5069016;28;20160;-76
2021/03/30 11:46:07;;;;;;;1.27;0.30;;;;;;;;;;5069126;28;20231;-76
2021/03/30 11:48:34;;;;;;;0.70;0.57;;;;;;;;;;5069343;28;20228;-76
2021/03/30 11:51:00;;;;;;;0.40;0.40;;;;;;;;;;5051308;28;20283;-76
2021/03/30 11:53:28;;;;;;;5.72;0.85;;;;;;;;;;5069307;28;20228;-76
2021/03/30 11:55:55;;;;;;;1.85;1.58;;;;;;;;;;5069101;28;20195;-76
2021/03/30 11:58:21;;;;;;;0.50;0.50;;;;;;;;;;5069365;28;20207;-75
2021/03/30 12:00:47;;;;;;;0.40;0.40;;;;;;;;;;5069396;28;20231;-76
2021/03/30 12:03:13;;;;;;;4.68;1.42;;;;;;;;;;5051056;28;20183;-75
2021/03/30 12:05:39;;;;;;;1.00;0.90;;;;;;;;;;5069044;28;20187;-75
2021/03/30 12:08:06;;;;;;;0.43;0.40;;;;;;;;;;5051032;28;20249;-76
2021/03/30 12:10:32;;;;;;;2.15;0.52;;;;;;;;;;5069206;28;20164;-75
2021/03/30 12:12:58;;;;;;;0.35;0.35;;;;;;;;;;5051130;28;20191;-76
2021/03/30 12:15:24;;;;;;;0.68;0.38;;;;;;;;;;5058951;28;20188;-76
2021/03/30 12:17:51;;;;;;;0.55;0.55;;;;;;;;;;5034356;28;20720;-76
2021/03/30 12:20:17;;;;;;;1.23;0.55;;;;;;;;;;5047768;28;20180;-76
2021/03/30 12:22:44;;;;;;;0.10;0.10;;;;;;;;;;5048696;28;20216;-76
2021/03/30 12:25:11;;;;;;;0.57;0.57;;;;;;;;;;5068674;28;20156;-77
2021/03/30 12:27:37;;;;;;;3.53;1.77;;;;;;;;;;5068501;28;20196;-76
2021/03/30 12:30:05;;;;;;;0.28;0.22;;;;;;;;;;5068657;28;20163;-76
2021/03/30 12:32:31;;;;;;;2.00;0.88;;;;;;;;;;5069975;28;20153;-75
2021/03/30 12:34:57;;;;;;;0.20;0.20;;;;;;;;;;5072685;28;20172;-75
2021/03/30 12:37:23;;;;;;;0.10;0.10;;;;;;;;;;5072562;28;20230;-76
2021/03/30 12:39:50;;;;;;;0.43;0.43;;;;;;;;;;5072401;28;20193;-76
2021/03/30 12:42:16;;;;;;;0.65;0.65;;;;;;;;;;5072226;28;20168;-75
2021/03/30 12:44:42;;;;;;;0.43;0.43;;;;;;;;;;5072625;28;20179;-76
2021/03/30 12:47:08;;;;;;;0.55;0.35;;;;;;;;;;5054861;28;20180;-75
2021/03/30 12:49:34;;;;;;;0.13;0.13;;;;;;;;;;5080541;28;20231;-75
2021/03/30 12:52:01;;;;;;;0.82;0.82;;;;;;;;;;5074627;28;20175;-75
2021/03/30 12:54:27;;;;;;;0.10;0.10;;;;;;;;;;5092778;28;20173;-71
2021/03/30 12:56:54;;;;;;;0.25;0.25;;;;;;;;;;5092819;28;20162;-72
2021/03/30 12:59:20;;;;;;;0.40;0.25;;;;;;;;;;5074546;28;20218;-72
2021/03/30 13:01:46;;;;;;;2.28;1.27;;;;;;;;;;5092549;28;20160;-72
2021/03/30 13:04:12;;;;;;;0.17;0.17;;;;;;;;;;5074187;28;20168;-72
2021/03/30 13:06:38;;;;;;;0.63;0.25;;;;;;;;;;5074449;28;20194;-71
2021/03/30 13:09:05;;;;;;;1.33;0.57;;;;;;;;;;5092330;28;20254;-71
2021/03/30 13:11:31;;;;;;;1.13;0.88;;;;;;;;;;5074428;28;20168;-72
2021/03/30 13:13:58;;;;;;;0.85;0.85;;;;;;;;;;5074295;28;20163;-71
2021/03/30 13:16:24;;;;;;;0.43;0.28;;;;;;;;;;5074083;28;20183;-72
2021/03/30 13:18:51;;;;;;;1.45;0.52;;;;;;;;;;5091744;28;20206;-72
2021/03/30 13:21:18;;;;;;;3.50;0.25;;;;;;;;;;5073840;28;20202;-72
2021/03/30 13:23:44;;;;;;;0.40;0.35;;;;;;;;;;5091834;28;20160;-72
2021/03/30 13:26:11;;;;;;;0.55;0.55;;;;;;;;;;5091503;28;20179;-72
2021/03/30 13:28:38;;;;;;;0.30;0.30;;;;;;;;;;5091737;28;20191;-72
2021/03/30 13:31:04;;;;;;;0.73;0.25;;;;;;;;;;5073368;28;20179;-73
2021/03/30 13:33:31;;;;;;;0.38;0.38;;;;;;;;;;5091110;28;20562;-72
2021/03/30 13:35:58;;;;;;;0.22;0.22;;;;;;;;;;5091072;28;20159;-75
2021/03/30 13:38:24;;;;;;;0.15;0.15;;;;;;;;;;5090932;28;20207;-75
2021/03/30 13:40:50;;;;;;;0.40;0.25;;;;;;;;;;5090976;28;20162;-75
2021/03/30 13:43:16;;;;;;;0.15;0.10;;;;;;;;;;5090905;28;20160;-75
2021/03/30 13:45:43;;;;;;;0.70;0.40;;;;;;;;;;5072794;28;20175;-75
2021/03/30 13:48:09;;;;;;;0.30;0.30;;;;;;;;;;5090904;28;20185;-75
2021/03/30 13:50:36;;;;;;;0.30;0.30;;;;;;;;;;5072694;28;20277;-75
2021/03/30 13:53:02;;;;;;;0.85;0.40;;;;;;;;;;5090863;28;20156;-75
2021/03/30 13:55:29;;;;;;;1.52;0.50;;;;;;;;;;5090747;28;20184;-75
2021/03/30 13:57:55;;;;;;;0.15;0.15;;;;;;;;;;5090626;28;20240;-75
2021/03/30 14:00:22;;;;;;;0.10;0.10;;;;;;;;;;5090896;28;20156;-75
2021/03/30 14:02:48;;;;;;;0.20;0.20;;;;;;;;;;5090447;28;20163;-75
2021/03/30 14:05:15;;;;;;;0.50;0.50;;;;;;;;;;5072585;28;20498;-75
2021/03/30 14:07:41;;;;;;;0.50;0.50;;;;;;;;;;5072585;28;20175;-75
2021/03/30 14:10:07;;;;;;;0.80;0.22;;;;;;;;;;5072465;28;20199;-75
2021/03/30 14:12:39;;;;;;;0.22;0.20;;;;;;;;;;5090509;28;20163;-75
2021/03/30 14:15:19;;;;;;;0.08;0.08;;;;;;;;;;5090451;28;20252;-75
2021/03/30 14:17:47;;;;;;;0.08;0.08;;;;;;;;;;5072227;28;20229;-74
2021/03/30 14:20:16;;;;;;;0.10;0.10;;;;;;;;;;5068922;28;20191;-75
2021/03/30 14:22:45;;;;;;;1.48;0.90;;;;;;;;;;5090255;28;20198;-76
2021/03/30 14:25:14;;;;;;;2.05;0.52;;;;;;;;;;5090212;28;20191;-75
2021/03/30 14:27:41;;;;;;;0.32;0.32;;;;;;;;;;5072059;28;20183;-75
2021/03/30 14:30:08;;;;;;;0.28;0.28;;;;;;;;;;5065802;28;20199;-76
2021/03/30 14:32:34;;;;;;;0.20;0.20;;;;;;;;;;5069454;28;20255;-75
2021/03/30 14:35:01;;;;;;;0.03;0.03;;;;;;;;;;5069813;28;20170;-75
2021/03/30 14:37:32;;;;;;;0.40;0.40;;;;;;;;;;5070053;28;20198;-75
2021/03/30 14:40:40;;;;;;;0.35;0.35;;;;;;;;;;5069976;28;20220;-75
2021/03/30 14:43:40;;;;;;;1.88;0.40;;;;;;;;;;5061485;28;20259;-75
2021/03/30 14:53:51;;;;;;;0.38;0.35;;;;;;;;;;5069758;28;20167;-76
2021/03/30 14:56:26;;;;;;;0.30;0.30;;;;;;;;;;5051042;28;20180;-75
2021/03/30 15:04:29;;;;;;;0.28;0.28;;;;;;;;;;5069248;28;20169;-75
2021/03/30 15:06:31;;;;;;;3.10;0.45;;;;;;;;;;5058503;28;20176;-75